createdAt,value
2023-03-22T00:00:41.520Z,23.5
2023-03-22T00:01:43.414Z,23.6
2023-03-22T00:02:45.388Z,23.6
2023-03-22T00:03:47.737Z,23.6
2023-03-22T00:04:49.787Z,23.6
2023-03-22T00:05:51.732Z,23.6
2023-03-22T00:06:53.580Z,23.7
2023-03-22T00:07:55.447Z,23.7
2023-03-22T00:08:57.391Z,23.7
2023-03-22T00:09:59.138Z,23.7
2023-03-22T00:11:00.995Z,23.7
2023-03-22T00:12:02.839Z,23.7
2023-03-22T00:13:04.691Z,23.7
2023-03-22T00:14:06.639Z,23.7
2023-03-22T00:15:08.583Z,23.7
2023-03-22T00:16:10.523Z,23.7
2023-03-22T00:17:12.703Z,23.7
2023-03-22T00:18:14.550Z,23.7
2023-03-22T00:19:16.529Z,23.7
2023-03-22T00:20:21.023Z,23.7
2023-03-22T00:21:22.873Z,23.7
2023-03-22T00:22:24.718Z,23.7
2023-03-22T00:23:26.663Z,23.7
2023-03-22T00:24:28.522Z,23.7
2023-03-22T00:25:30.329Z,23.7
2023-03-22T00:26:32.426Z,23.8
2023-03-22T00:27:34.293Z,23.7
2023-03-22T00:28:36.265Z,23.7
2023-03-22T00:29:38.072Z,23.7
2023-03-22T00:30:40.648Z,23.8
2023-03-22T00:31:43.204Z,23.8
2023-03-22T00:32:45.072Z,23.8
2023-03-22T00:33:47.020Z,23.8
2023-03-22T00:34:48.859Z,23.7
2023-03-22T00:35:50.821Z,23.8
2023-03-22T00:36:52.866Z,23.7
2023-03-22T00:37:54.818Z,23.8
2023-03-22T00:38:56.788Z,23.7
2023-03-22T00:39:58.641Z,23.8
2023-03-22T00:41:00.379Z,23.8
2023-03-22T00:42:02.241Z,23.8
2023-03-22T00:43:04.181Z,23.8
2023-03-22T00:44:06.033Z,23.8
2023-03-22T00:45:07.888Z,23.8
2023-03-22T00:46:09.909Z,23.8
2023-03-22T00:47:12.015Z,23.8
2023-03-22T00:48:13.997Z,23.8
2023-03-22T00:49:16.005Z,23.8
2023-03-22T00:50:17.954Z,23.8
2023-03-22T00:51:19.791Z,23.8
2023-03-22T00:52:21.658Z,23.8
2023-03-22T00:53:23.600Z,23.8
2023-03-22T00:54:25.459Z,23.8
2023-03-22T00:55:27.293Z,23.8
2023-03-22T00:56:29.463Z,23.8
2023-03-22T00:57:31.324Z,23.8
2023-03-22T00:58:33.254Z,23.8
2023-03-22T00:59:34.998Z,23.8
2023-03-22T01:00:37.289Z,23.8
2023-03-22T01:01:39.949Z,23.8
2023-03-22T01:02:41.816Z,23.8
2023-03-22T01:03:44.255Z,23.8
2023-03-22T01:04:46.406Z,23.8
2023-03-22T01:05:48.363Z,23.8
2023-03-22T01:06:50.310Z,23.8
2023-03-22T01:07:52.155Z,23.8
2023-03-22T01:08:54.120Z,23.8
2023-03-22T01:09:55.963Z,23.8
2023-03-22T01:10:57.909Z,23.9
2023-03-22T01:11:59.866Z,23.8
2023-03-22T01:13:01.823Z,23.9
2023-03-22T01:14:03.669Z,23.9
2023-03-22T01:15:05.510Z,23.9
2023-03-22T01:16:07.445Z,23.9
2023-03-22T01:17:09.523Z,23.9
2023-03-22T01:18:11.502Z,23.9
2023-03-22T01:19:13.441Z,23.9
2023-03-22T01:20:15.383Z,23.9
2023-03-22T01:21:17.330Z,23.9
2023-03-22T01:22:19.198Z,23.9
2023-03-22T01:23:21.041Z,23.9
2023-03-22T01:24:22.887Z,23.9
2023-03-22T01:25:24.765Z,23.9
2023-03-22T01:26:26.691Z,23.9
2023-03-22T01:27:28.527Z,23.9
2023-03-22T01:28:30.497Z,23.9
2023-03-22T01:29:32.341Z,23.9
2023-03-22T01:30:34.333Z,23.9
2023-03-22T01:31:36.549Z,23.9
2023-03-22T01:32:38.398Z,23.9
2023-03-22T01:33:40.276Z,23.9
2023-03-22T01:34:41.970Z,23.9
2023-03-22T01:35:43.860Z,23.9
2023-03-22T01:36:45.803Z,23.9
2023-03-22T01:37:47.754Z,23.9
2023-03-22T01:38:49.608Z,23.9
2023-03-22T01:39:51.354Z,23.9
2023-03-22T01:40:53.206Z,23.9
2023-03-22T01:41:55.071Z,23.9
2023-03-22T01:42:56.895Z,23.9
2023-03-22T01:43:58.849Z,24
2023-03-22T01:45:00.619Z,24
2023-03-22T01:46:02.740Z,24
2023-03-22T01:47:04.617Z,24
2023-03-22T01:48:06.587Z,24
2023-03-22T01:49:08.897Z,23.9
2023-03-22T01:50:10.886Z,24
2023-03-22T01:51:12.685Z,24
2023-03-22T01:52:14.572Z,23.9
2023-03-22T01:53:16.433Z,23.9
2023-03-22T01:54:18.297Z,24
2023-03-22T01:55:20.126Z,24
2023-03-22T01:56:22.080Z,24
2023-03-22T01:57:23.940Z,24
2023-03-22T01:58:25.788Z,24
2023-03-22T01:59:27.555Z,24
2023-03-22T02:00:29.280Z,24
2023-03-22T02:01:31.308Z,24
2023-03-22T02:02:33.511Z,24
2023-03-22T02:03:35.453Z,24
2023-03-22T02:04:37.434Z,24
2023-03-22T02:05:39.252Z,24
2023-03-22T02:06:41.119Z,24
2023-03-22T02:07:42.940Z,24
2023-03-22T02:08:44.805Z,24
2023-03-22T02:09:46.763Z,24
2023-03-22T02:10:48.592Z,24
2023-03-22T02:11:50.453Z,24
2023-03-22T02:12:52.312Z,24
2023-03-22T02:13:54.140Z,24
2023-03-22T02:14:56.107Z,24
2023-03-22T02:15:58.080Z,24
2023-03-22T02:16:59.997Z,24
2023-03-22T02:18:01.852Z,24
2023-03-22T02:19:03.713Z,24
2023-03-22T02:20:05.687Z,24
2023-03-22T02:21:07.504Z,24
2023-03-22T02:22:09.361Z,24
2023-03-22T02:23:11.214Z,24
2023-03-22T02:24:13.062Z,24
2023-03-22T02:25:15.022Z,24
2023-03-22T02:26:16.963Z,24
2023-03-22T02:27:18.769Z,24
2023-03-22T02:28:20.669Z,24
2023-03-22T02:29:22.480Z,24
2023-03-22T02:30:24.397Z,24.1
2023-03-22T02:31:26.389Z,24.1
2023-03-22T02:32:28.267Z,24.1
2023-03-22T02:33:30.214Z,24.1
2023-03-22T02:34:32.200Z,24
2023-03-22T02:35:34.476Z,24.1
2023-03-22T02:36:36.493Z,24.1
2023-03-22T02:37:38.346Z,24.1
2023-03-22T02:38:40.182Z,24
2023-03-22T02:39:42.038Z,24
2023-03-22T02:40:43.893Z,24.1
2023-03-22T02:41:45.735Z,24.1
2023-03-22T02:42:47.586Z,24.1
2023-03-22T02:43:49.432Z,24.1
2023-03-22T02:44:51.284Z,24.1
2023-03-22T02:45:53.142Z,24.1
2023-03-22T02:46:55.002Z,24.1
2023-03-22T02:47:57.179Z,24.1
2023-03-22T02:48:59.103Z,24.1
2023-03-22T02:50:00.955Z,24.1
2023-03-22T02:51:02.827Z,24.1
2023-03-22T02:52:04.641Z,24.1
2023-03-22T02:53:06.902Z,24.1
2023-03-22T02:54:08.851Z,24.2
2023-03-22T02:55:10.706Z,24.1
2023-03-22T02:56:12.661Z,24.1
2023-03-22T02:57:14.399Z,24.1
2023-03-22T02:58:16.367Z,24.1
2023-03-22T02:59:18.314Z,24.1
2023-03-22T03:00:20.158Z,24.1
2023-03-22T03:01:22.212Z,24.1
2023-03-22T03:02:24.442Z,24.1
2023-03-22T03:03:26.627Z,24.1
2023-03-22T03:04:28.490Z,24.2
2023-03-22T03:05:30.339Z,24.1
2023-03-22T03:06:32.372Z,24.1
2023-03-22T03:07:34.195Z,24.1
2023-03-22T03:08:36.189Z,24.1
2023-03-22T03:09:38.247Z,24.2
2023-03-22T03:10:41.412Z,24.1
2023-03-22T03:11:44.098Z,24.1
2023-03-22T03:12:45.957Z,24.1
2023-03-22T03:13:47.798Z,24.2
2023-03-22T03:14:49.758Z,24.1
2023-03-22T03:15:51.635Z,24.1
2023-03-22T03:16:53.750Z,24.1
2023-03-22T03:17:55.599Z,24.1
2023-03-22T03:18:57.459Z,24.1
2023-03-22T03:19:59.298Z,24.1
2023-03-22T03:21:01.155Z,24.1
2023-03-22T03:22:03.035Z,24.1
2023-03-22T03:23:04.753Z,24.1
2023-03-22T03:24:06.722Z,24.1
2023-03-22T03:25:08.662Z,24.1
2023-03-22T03:26:10.611Z,24.1
2023-03-22T03:27:12.562Z,24.1
2023-03-22T03:28:14.407Z,24.2
2023-03-22T03:29:16.257Z,24.1
2023-03-22T03:30:18.129Z,24.1
2023-03-22T03:31:20.099Z,24.1
2023-03-22T03:32:22.218Z,24.2
2023-03-22T03:33:24.079Z,24.2
2023-03-22T03:34:25.929Z,24.2
2023-03-22T03:35:27.814Z,24.2
2023-03-22T03:36:29.938Z,24.2
2023-03-22T03:37:31.916Z,24.1
2023-03-22T03:38:33.729Z,24.2
2023-03-22T03:39:35.624Z,24.1
2023-03-22T03:40:38.185Z,24.1
2023-03-22T03:41:40.830Z,24.1
2023-03-22T03:42:42.674Z,24.1
2023-03-22T03:43:44.419Z,24.1
2023-03-22T03:44:46.363Z,24.2
2023-03-22T03:45:48.254Z,24.2
2023-03-22T03:46:50.180Z,24.2
2023-03-22T03:47:52.236Z,24.1
2023-03-22T03:48:54.070Z,24.2
2023-03-22T03:49:55.928Z,24.2
2023-03-22T03:50:57.790Z,24.3
2023-03-22T03:51:59.599Z,24.4
2023-03-22T03:53:01.648Z,24.4
2023-03-22T03:54:03.423Z,24.5
2023-03-22T03:55:05.275Z,24.6
2023-03-22T03:56:07.236Z,24.8
2023-03-22T03:57:09.048Z,24.8
2023-03-22T03:58:11.066Z,25
2023-03-22T03:59:12.891Z,25
2023-03-22T04:00:14.793Z,25
2023-03-22T04:01:16.693Z,25.1
2023-03-22T04:02:18.680Z,25.1
2023-03-22T04:03:20.792Z,25.2
2023-03-22T04:04:22.802Z,25.3
2023-03-22T04:05:24.869Z,25.3
2023-03-22T04:06:26.772Z,25.4
2023-03-22T04:07:28.615Z,25.4
2023-03-22T04:08:30.574Z,25.4
2023-03-22T04:09:32.445Z,25.5
2023-03-22T04:10:34.363Z,25.5
2023-03-22T04:11:36.324Z,25.6
2023-03-22T04:12:38.171Z,25.6
2023-03-22T04:13:40.020Z,25.7
2023-03-22T04:14:41.881Z,25.7
2023-03-22T04:15:43.687Z,25.8
2023-03-22T04:16:45.796Z,25.8
2023-03-22T04:17:47.907Z,25.8
2023-03-22T04:18:49.876Z,25.9
2023-03-22T04:19:51.625Z,25.9
2023-03-22T04:20:53.496Z,26
2023-03-22T04:21:55.320Z,26
2023-03-22T04:22:57.148Z,26
2023-03-22T04:23:59.052Z,26
2023-03-22T04:25:00.893Z,26.1
2023-03-22T04:26:02.732Z,26.1
2023-03-22T04:27:04.784Z,26.2
2023-03-22T04:28:06.606Z,26.2
2023-03-22T04:29:08.477Z,26.2
2023-03-22T04:30:10.328Z,26.3
2023-03-22T04:31:12.340Z,26.3
2023-03-22T04:32:14.546Z,26.2
2023-03-22T04:33:16.470Z,26.2
2023-03-22T04:34:18.310Z,26.2
2023-03-22T04:35:20.339Z,26.2
2023-03-22T04:36:22.254Z,26.2
2023-03-22T04:37:24.205Z,26.2
2023-03-22T04:38:26.075Z,26.3
2023-03-22T04:39:27.820Z,26.4
2023-03-22T04:40:29.644Z,26.4
2023-03-22T04:41:31.500Z,26.3
2023-03-22T04:42:33.324Z,26.3
2023-03-22T04:43:35.203Z,26.4
2023-03-22T04:44:37.024Z,26.4
2023-03-22T04:45:38.904Z,26.3
2023-03-22T04:46:40.964Z,26.4
2023-03-22T04:47:43.163Z,26.4
2023-03-22T04:48:45.169Z,26.5
2023-03-22T04:49:47.016Z,26.5
2023-03-22T04:50:48.867Z,26.5
2023-03-22T04:51:50.712Z,26.6
2023-03-22T04:52:52.576Z,26.6
2023-03-22T04:53:54.415Z,26.6
2023-03-22T04:54:56.400Z,26.6
2023-03-22T04:55:58.326Z,26.6
2023-03-22T04:57:00.166Z,26.8
2023-03-22T04:58:02.221Z,26.9
2023-03-22T04:59:03.993Z,27
2023-03-22T05:00:05.733Z,27.1
2023-03-22T05:01:07.591Z,27.2
2023-03-22T05:02:09.637Z,27.3
2023-03-22T05:03:11.647Z,27.2
2023-03-22T05:04:13.642Z,27.2
2023-03-22T05:05:15.392Z,27.2
2023-03-22T05:06:17.266Z,27.3
2023-03-22T05:07:19.089Z,27.3
2023-03-22T05:08:21.041Z,27.3
2023-03-22T05:09:23.835Z,27.3
2023-03-22T05:10:25.792Z,27.2
2023-03-22T05:11:27.741Z,27.2
2023-03-22T05:12:29.565Z,27.2
2023-03-22T05:13:31.384Z,27.2
2023-03-22T05:14:33.517Z,27.2
2023-03-22T05:15:35.591Z,27.2
2023-03-22T05:16:37.486Z,27.3
2023-03-22T05:17:39.319Z,27.3
2023-03-22T05:18:41.179Z,27.5
2023-03-22T05:19:43.026Z,27.5
2023-03-22T05:20:44.749Z,27.7
2023-03-22T05:21:46.663Z,27.6
2023-03-22T05:22:48.472Z,27.6
2023-03-22T05:23:51.864Z,27.7
2023-03-22T05:24:53.669Z,27.7
2023-03-22T05:25:55.585Z,27.6
2023-03-22T05:26:57.515Z,27.6
2023-03-22T05:27:59.257Z,27.5
2023-03-22T05:29:01.210Z,27.5
2023-03-22T05:30:03.071Z,27.6
2023-03-22T05:31:05.111Z,27.6
2023-03-22T05:32:07.267Z,27.5
2023-03-22T05:33:09.168Z,27.5
2023-03-22T05:34:10.977Z,27.6
2023-03-22T05:35:12.830Z,27.5
2023-03-22T05:36:14.673Z,27.4
2023-03-22T05:37:16.628Z,27.5
2023-03-22T05:38:18.479Z,27.5
2023-03-22T05:39:20.448Z,27.3
2023-03-22T05:40:22.287Z,27.2
2023-03-22T05:41:24.170Z,27.3
2023-03-22T05:42:26.192Z,27.2
2023-03-22T05:43:28.039Z,27.2
2023-03-22T05:44:29.886Z,27.2
2023-03-22T05:45:31.727Z,27.1
2023-03-22T05:46:33.767Z,27
2023-03-22T05:47:35.966Z,26.9
2023-03-22T05:48:37.911Z,26.9
2023-03-22T05:49:39.740Z,26.8
2023-03-22T05:50:41.705Z,26.9
2023-03-22T05:51:43.786Z,27
2023-03-22T05:52:45.614Z,26.9
2023-03-22T05:53:47.481Z,26.8
2023-03-22T05:54:49.322Z,26.7
2023-03-22T05:55:51.131Z,26.8
2023-03-22T05:56:55.929Z,26.7
2023-03-22T05:57:57.839Z,26.8
2023-03-22T05:58:59.680Z,26.9
2023-03-22T06:00:01.646Z,26.8
2023-03-22T06:01:03.482Z,26.8
2023-03-22T06:02:05.364Z,27
2023-03-22T06:03:07.511Z,26.9
2023-03-22T06:04:09.624Z,26.7
2023-03-22T06:05:11.496Z,26.7
2023-03-22T06:06:13.464Z,26.6
2023-03-22T06:07:15.301Z,26.6
2023-03-22T06:08:16.973Z,26.5
2023-03-22T06:09:18.811Z,26.5
2023-03-22T06:10:20.546Z,26.6
2023-03-22T06:11:22.511Z,26.7
2023-03-22T06:12:24.482Z,26.7
2023-03-22T06:13:26.458Z,26.6
2023-03-22T06:14:28.462Z,26.6
2023-03-22T06:15:30.412Z,26.6
2023-03-22T06:16:32.231Z,26.6
2023-03-22T06:17:34.428Z,26.5
2023-03-22T06:18:36.277Z,26.5
2023-03-22T06:19:38.125Z,26.4
2023-03-22T06:20:40.743Z,26.5
2023-03-22T06:21:43.838Z,26.5
2023-03-22T06:22:45.718Z,26.6
2023-03-22T06:23:47.572Z,26.5
2023-03-22T06:24:49.410Z,26.6
2023-03-22T06:25:51.263Z,26.5
2023-03-22T06:26:53.019Z,26.5
2023-03-22T06:27:54.985Z,26.3
2023-03-22T06:28:56.812Z,26.5
2023-03-22T06:29:58.663Z,26.6
2023-03-22T06:31:00.567Z,26.7
2023-03-22T06:32:02.569Z,26.8
2023-03-22T06:33:04.422Z,26.7
2023-03-22T06:34:06.263Z,26.7
2023-03-22T06:35:10.801Z,26.7
2023-03-22T06:36:12.585Z,26.8
2023-03-22T06:37:14.690Z,26.7
2023-03-22T06:38:16.641Z,26.6
2023-03-22T06:39:18.491Z,26.5
2023-03-22T06:40:20.340Z,26.7
2023-03-22T06:41:22.293Z,26.6
2023-03-22T06:42:24.136Z,26.5
2023-03-22T06:43:26.141Z,26.6
2023-03-22T06:44:28.141Z,26.5
2023-03-22T06:45:29.998Z,26.4
2023-03-22T06:46:32.019Z,26.3
2023-03-22T06:47:33.881Z,26.2
2023-03-22T06:48:35.749Z,26.3
2023-03-22T06:49:37.608Z,26.2
2023-03-22T06:50:44.142Z,26.2
2023-03-22T06:51:46.821Z,26.2
2023-03-22T06:52:48.679Z,26.2
2023-03-22T06:53:50.629Z,26.4
2023-03-22T06:54:52.538Z,26.4
2023-03-22T06:55:55.759Z,26.3
2023-03-22T06:56:57.707Z,26.3
2023-03-22T06:57:59.565Z,26.3
2023-03-22T06:59:01.545Z,26.4
2023-03-22T07:00:03.472Z,26.3
2023-03-22T07:01:05.427Z,26.3
2023-03-22T07:02:07.377Z,26.2
2023-03-22T07:03:09.320Z,26.3
2023-03-22T07:04:11.211Z,26.2
2023-03-22T07:05:13.238Z,26.2
2023-03-22T07:06:15.121Z,26.1
2023-03-22T07:07:17.043Z,26.1
2023-03-22T07:08:18.895Z,26.1
2023-03-22T07:09:20.630Z,26.1
2023-03-22T07:10:22.459Z,26
2023-03-22T07:11:24.306Z,26
2023-03-22T07:12:26.620Z,26.2
2023-03-22T07:13:28.898Z,26.2
2023-03-22T07:14:30.741Z,26.2
2023-03-22T07:15:32.713Z,26.2
2023-03-22T07:16:35.038Z,26.2
2023-03-22T07:17:36.970Z,26.3
2023-03-22T07:18:38.821Z,26.2
2023-03-22T07:19:40.572Z,26.2
2023-03-22T07:20:42.785Z,26.1
2023-03-22T07:21:44.560Z,26.2
2023-03-22T07:22:46.319Z,26.3
2023-03-22T07:23:48.136Z,26.4
2023-03-22T07:24:59.424Z,26.4
2023-03-22T07:26:03.554Z,26.3
2023-03-22T07:27:05.571Z,26.2
2023-03-22T07:28:07.312Z,26.2
2023-03-22T07:29:09.335Z,26.1
2023-03-22T07:30:11.299Z,26.2
2023-03-22T07:31:13.110Z,26.2
2023-03-22T07:32:15.124Z,26.1
2023-03-22T07:33:17.178Z,26.1
2023-03-22T07:34:19.083Z,26.1
2023-03-22T07:35:20.955Z,26.1
2023-03-22T07:36:23.070Z,26.1
2023-03-22T07:37:25.043Z,26.1
2023-03-22T07:38:26.985Z,26.2
2023-03-22T07:39:28.966Z,26.2
2023-03-22T07:40:30.802Z,26.2
2023-03-22T07:41:32.631Z,26.2
2023-03-22T07:42:34.385Z,26.1
2023-03-22T07:43:56.761Z,26.1
2023-03-22T07:45:20.562Z,26.1
2023-03-22T07:46:22.494Z,26
2023-03-22T07:47:41.490Z,26
2023-03-22T07:48:43.408Z,26.1
2023-03-22T07:49:45.190Z,25.9
2023-03-22T07:50:47.040Z,25.9
2023-03-22T07:51:48.978Z,25.9
2023-03-22T07:52:50.947Z,25.9
2023-03-22T07:53:52.790Z,25.9
2023-03-22T07:54:54.641Z,26
2023-03-22T07:55:56.607Z,26.2
2023-03-22T07:56:58.451Z,26.4
2023-03-22T07:58:00.329Z,26.4
2023-03-22T07:59:02.481Z,26.4
2023-03-22T08:00:04.716Z,26.4
2023-03-22T08:01:06.595Z,26.2
2023-03-22T08:02:08.868Z,26.2
2023-03-22T08:03:11.193Z,26.1
2023-03-22T08:04:13.131Z,26.3
2023-03-22T08:05:15.089Z,26.3
2023-03-22T08:06:16.956Z,26.4
2023-03-22T08:07:18.908Z,26.2
2023-03-22T08:08:20.864Z,26.2
2023-03-22T08:09:22.696Z,26.2
2023-03-22T08:10:42.111Z,26.3
2023-03-22T08:11:43.902Z,26.3
2023-03-22T08:12:45.748Z,26.3
2023-03-22T08:13:47.562Z,26.4
2023-03-22T08:14:49.559Z,26.4
2023-03-22T08:15:51.402Z,26.4
2023-03-22T08:16:53.402Z,26.4
2023-03-22T08:17:55.224Z,26.5
2023-03-22T08:18:57.054Z,26.5
2023-03-22T08:19:59.010Z,26.5
2023-03-22T08:21:00.827Z,26.5
2023-03-22T08:22:02.604Z,26.4
2023-03-22T08:23:04.564Z,26.5
2023-03-22T08:24:06.299Z,26.6
2023-03-22T08:25:08.126Z,26.6
2023-03-22T08:26:10.011Z,26.6
2023-03-22T08:27:11.763Z,26.7
2023-03-22T08:28:13.502Z,26.6
2023-03-22T08:29:15.453Z,26.6
2023-03-22T08:30:17.281Z,26.6
2023-03-22T08:31:19.137Z,26.5
2023-03-22T08:32:21.336Z,26.4
2023-03-22T08:33:23.174Z,26.4
2023-03-22T08:34:25.120Z,26.3
2023-03-22T08:35:27.079Z,26.4
2023-03-22T08:36:28.914Z,26.4
2023-03-22T08:37:30.732Z,26.4
2023-03-22T08:38:32.747Z,26.4
2023-03-22T08:39:34.872Z,26.5
2023-03-22T08:40:37.028Z,26.5
2023-03-22T08:41:38.878Z,26.6
2023-03-22T08:42:41.147Z,26.6
2023-03-22T08:43:42.992Z,26.5
2023-03-22T08:44:44.887Z,26.7
2023-03-22T08:45:46.732Z,26.7
2023-03-22T08:46:48.561Z,26.8
2023-03-22T08:47:50.566Z,26.8
2023-03-22T08:48:52.421Z,26.8
2023-03-22T08:49:54.415Z,26.7
2023-03-22T08:50:56.367Z,26.6
2023-03-22T08:51:58.104Z,26.6
2023-03-22T08:52:59.954Z,26.5
2023-03-22T08:54:01.907Z,26.5
2023-03-22T08:55:03.723Z,26.5
2023-03-22T08:56:05.612Z,26.6
2023-03-22T08:57:07.427Z,26.6
2023-03-22T08:58:09.336Z,26.6
2023-03-22T08:59:11.055Z,26.7
2023-03-22T09:00:12.902Z,26.7
2023-03-22T09:01:14.924Z,26.9
2023-03-22T09:02:17.345Z,27
2023-03-22T09:03:19.430Z,26.9
2023-03-22T09:04:21.412Z,26.9
2023-03-22T09:05:23.180Z,26.7
2023-03-22T09:06:25.029Z,26.7
2023-03-22T09:07:26.971Z,26.6
2023-03-22T09:08:28.798Z,26.6
2023-03-22T09:09:30.641Z,26.6
2023-03-22T09:10:32.526Z,26.5
2023-03-22T09:11:34.289Z,26.6
2023-03-22T09:12:36.249Z,26.8
2023-03-22T09:13:38.189Z,26.8
2023-03-22T09:14:39.877Z,26.8
2023-03-22T09:15:42.499Z,26.8
2023-03-22T09:16:45.364Z,26.7
2023-03-22T09:17:47.197Z,26.8
2023-03-22T09:18:49.324Z,26.8
2023-03-22T09:20:11.855Z,26.8
2023-03-22T09:21:15.008Z,26.7
2023-03-22T09:22:16.836Z,26.6
2023-03-22T09:23:18.668Z,26.6
2023-03-22T09:24:20.654Z,26.8
2023-03-22T09:25:22.491Z,26.7
2023-03-22T09:26:24.551Z,26.8
2023-03-22T09:27:26.393Z,26.7
2023-03-22T09:28:28.376Z,27
2023-03-22T09:29:30.303Z,27
2023-03-22T09:30:32.164Z,26.9
2023-03-22T09:31:34.185Z,26.8
2023-03-22T09:32:36.156Z,26.8
2023-03-22T09:33:38.010Z,27
2023-03-22T09:34:39.783Z,26.9
2023-03-22T09:35:42.549Z,27
2023-03-22T09:36:45.412Z,27
2023-03-22T09:37:47.358Z,27
2023-03-22T09:38:49.211Z,26.9
2023-03-22T09:39:51.061Z,26.9
2023-03-22T09:40:52.800Z,27
2023-03-22T09:41:54.632Z,26.8
2023-03-22T09:42:56.550Z,26.8
2023-03-22T09:43:58.473Z,26.9
2023-03-22T09:45:00.329Z,27
2023-03-22T09:46:02.202Z,26.9
2023-03-22T09:47:04.312Z,26.8
2023-03-22T09:48:06.334Z,26.9
2023-03-22T09:49:08.319Z,26.9
2023-03-22T09:50:10.205Z,26.9
2023-03-22T09:51:12.028Z,27
2023-03-22T09:52:13.995Z,27
2023-03-22T09:53:15.925Z,26.9
2023-03-22T09:54:17.633Z,26.9
2023-03-22T09:55:19.311Z,27
2023-03-22T09:56:21.124Z,26.9
2023-03-22T09:57:22.921Z,26.9
2023-03-22T09:58:25.019Z,27
2023-03-22T09:59:26.963Z,26.9
2023-03-22T10:00:29.116Z,27
2023-03-22T10:01:31.677Z,26.9
2023-03-22T10:02:34.140Z,26.9
2023-03-22T10:03:36.273Z,26.8
2023-03-22T10:04:38.374Z,26.8
2023-03-22T10:05:41.049Z,26.7
2023-03-22T10:06:43.858Z,26.8
2023-03-22T10:07:45.709Z,26.8
2023-03-22T10:08:47.571Z,26.8
2023-03-22T10:09:49.385Z,26.8
2023-03-22T10:10:51.373Z,26.8
2023-03-22T10:11:53.220Z,26.8
2023-03-22T10:12:55.087Z,26.8
2023-03-22T10:13:56.924Z,26.8
2023-03-22T10:14:58.981Z,26.7
2023-03-22T10:16:00.978Z,26.9
2023-03-22T10:17:03.097Z,26.8
2023-03-22T10:18:04.936Z,26.8
2023-03-22T10:19:06.801Z,27
2023-03-22T10:20:08.761Z,26.8
2023-03-22T10:21:10.928Z,26.8
2023-03-22T10:22:12.755Z,26.7
2023-03-22T10:23:14.560Z,26.8
2023-03-22T10:24:16.552Z,26.8
2023-03-22T10:25:18.293Z,26.8
2023-03-22T10:26:20.249Z,27
2023-03-22T10:27:22.225Z,26.9
2023-03-22T10:28:24.160Z,26.9
2023-03-22T10:29:26.012Z,26.7
2023-03-22T10:30:27.978Z,26.8
2023-03-22T10:31:30.060Z,26.8
2023-03-22T10:32:32.163Z,26.9
2023-03-22T10:33:34.009Z,26.9
2023-03-22T10:34:35.870Z,26.9
2023-03-22T10:35:38.053Z,27
2023-03-22T10:36:40.724Z,27.2
2023-03-22T10:37:42.549Z,27
2023-03-22T10:38:44.390Z,26.9
2023-03-22T10:39:46.284Z,27
2023-03-22T10:40:48.197Z,27
2023-03-22T10:41:50.047Z,27
2023-03-22T10:42:51.895Z,27
2023-03-22T10:43:53.743Z,27
2023-03-22T10:44:55.503Z,27
2023-03-22T10:45:57.467Z,27.2
2023-03-22T10:46:59.496Z,27.2
2023-03-22T10:48:01.616Z,27.2
2023-03-22T10:49:03.718Z,27.1
2023-03-22T10:50:05.674Z,27.1
2023-03-22T10:51:07.844Z,27.2
2023-03-22T10:52:09.745Z,27.2
2023-03-22T10:53:11.537Z,27.2
2023-03-22T10:54:13.493Z,27.3
2023-03-22T10:55:15.332Z,27.2
2023-03-22T10:56:17.205Z,27.2
2023-03-22T10:57:18.932Z,27.2
2023-03-22T10:58:20.803Z,27.3
2023-03-22T10:59:22.744Z,27.3
2023-03-22T11:00:24.911Z,27.3
2023-03-22T11:01:27.490Z,27.2
2023-03-22T11:02:29.950Z,27.1
2023-03-22T11:03:32.394Z,27.1
2023-03-22T11:04:34.435Z,27
2023-03-22T11:05:36.295Z,26.9
2023-03-22T11:06:38.170Z,27
2023-03-22T11:07:40.168Z,27.1
2023-03-22T11:08:42.070Z,27
2023-03-22T11:09:43.911Z,27
2023-03-22T11:10:45.867Z,27.6
2023-03-22T11:11:47.902Z,27.2
2023-03-22T11:12:49.851Z,28.1
2023-03-22T11:13:51.815Z,27.3
2023-03-22T11:14:53.631Z,27.2
2023-03-22T11:15:55.476Z,27.2
2023-03-22T11:16:57.279Z,27.3
2023-03-22T11:17:59.122Z,27.3
2023-03-22T11:19:00.892Z,27.2
2023-03-22T11:20:02.865Z,27.2
2023-03-22T11:21:04.856Z,27.2
2023-03-22T11:22:06.667Z,27
2023-03-22T11:23:08.588Z,27.2
2023-03-22T11:24:10.323Z,27.2
2023-03-22T11:25:12.173Z,27.2
2023-03-22T11:26:14.008Z,27.3
2023-03-22T11:27:15.807Z,27.3
2023-03-22T11:28:17.610Z,27.5
2023-03-22T11:29:19.458Z,27.4
2023-03-22T11:30:21.312Z,27.4
2023-03-22T11:31:23.144Z,27.3
2023-03-22T11:32:25.425Z,27.2
2023-03-22T11:33:27.477Z,27.2
2023-03-22T11:34:29.342Z,27.2
2023-03-22T11:35:31.562Z,27.2
2023-03-22T11:36:33.771Z,27.3
2023-03-22T11:37:35.589Z,27.3
2023-03-22T11:38:37.609Z,27.2
2023-03-22T11:39:39.603Z,27.2
2023-03-22T11:40:42.176Z,27.2
2023-03-22T11:41:44.799Z,27.2
2023-03-22T11:42:46.691Z,27.3
2023-03-22T11:43:48.645Z,27.4
2023-03-22T11:44:50.488Z,27.2
2023-03-22T11:45:52.496Z,27.3
2023-03-22T11:46:54.713Z,27.4
2023-03-22T11:47:56.719Z,27.2
2023-03-22T11:49:01.549Z,27.4
2023-03-22T11:50:03.737Z,27.3
2023-03-22T11:51:05.603Z,27.3
2023-03-22T11:52:07.432Z,27.3
2023-03-22T11:53:09.292Z,27.3
2023-03-22T11:54:11.157Z,27.3
2023-03-22T11:55:12.985Z,27.3
2023-03-22T11:56:14.946Z,27.3
2023-03-22T11:57:16.757Z,27.6
2023-03-22T11:58:18.947Z,27.5
2023-03-22T11:59:20.816Z,27.4
2023-03-22T12:00:22.774Z,27.2
2023-03-22T12:01:24.695Z,27.3
2023-03-22T12:02:26.908Z,27.2
2023-03-22T12:03:29.688Z,27.3
2023-03-22T12:04:32.234Z,27.2
2023-03-22T12:05:34.441Z,27.2
2023-03-22T12:06:36.418Z,27.3
2023-03-22T12:07:38.648Z,27.4
2023-03-22T12:08:40.511Z,27.2
2023-03-22T12:09:42.497Z,27.3
2023-03-22T12:10:44.424Z,27.3
2023-03-22T12:11:46.265Z,27.3
2023-03-22T12:12:48.219Z,27.3
2023-03-22T12:13:50.184Z,27.3
2023-03-22T12:14:52.444Z,27.4
2023-03-22T12:15:54.719Z,27.4
2023-03-22T12:16:57.052Z,27.3
2023-03-22T12:17:58.936Z,27.2
2023-03-22T12:19:00.861Z,27.3
2023-03-22T12:20:02.730Z,27.2
2023-03-22T12:21:04.664Z,27.3
2023-03-22T12:22:06.618Z,27.2
2023-03-22T12:23:08.471Z,27.3
2023-03-22T12:24:10.311Z,27.3
2023-03-22T12:25:12.308Z,27.2
2023-03-22T12:26:14.012Z,27.2
2023-03-22T12:27:15.963Z,27.2
2023-03-22T12:28:17.783Z,27.3
2023-03-22T12:29:19.677Z,27.1
2023-03-22T12:30:21.548Z,27.2
2023-03-22T12:31:23.472Z,27.2
2023-03-22T12:32:26.006Z,27.2
2023-03-22T12:33:28.207Z,27.4
2023-03-22T12:34:30.022Z,27.3
2023-03-22T12:35:31.805Z,27.3
2023-03-22T12:36:33.542Z,27.2
2023-03-22T12:37:35.501Z,27.2
2023-03-22T12:38:37.329Z,27.2
2023-03-22T12:39:39.109Z,27
2023-03-22T12:40:41.690Z,26.9
2023-03-22T12:41:44.633Z,26.9
2023-03-22T12:42:54.522Z,26.9
2023-03-22T12:44:02.062Z,26.9
2023-03-22T12:45:06.047Z,26.8
2023-03-22T12:46:08.006Z,26.8
2023-03-22T12:47:10.001Z,26.8
2023-03-22T12:48:12.299Z,26.9
2023-03-22T12:49:14.489Z,26.8
2023-03-22T12:50:16.338Z,26.8
2023-03-22T12:51:18.147Z,26.7
2023-03-22T12:52:20.138Z,26.7
2023-03-22T12:53:22.091Z,26.7
2023-03-22T12:54:23.898Z,26.7
2023-03-22T12:55:25.685Z,26.7
2023-03-22T12:56:27.959Z,26.6
2023-03-22T12:57:30.309Z,26.6
2023-03-22T12:58:32.021Z,26.6
2023-03-22T12:59:33.904Z,26.6
2023-03-22T13:00:35.910Z,26.6
2023-03-22T13:01:38.346Z,26.5
2023-03-22T13:02:40.849Z,26.7
2023-03-22T13:03:43.067Z,26.7
2023-03-22T13:04:45.228Z,26.6
2023-03-22T13:05:47.026Z,26.8
2023-03-22T13:06:48.918Z,26.7
2023-03-22T13:07:50.772Z,26.9
2023-03-22T13:08:52.600Z,26.9
2023-03-22T13:09:54.343Z,26.8
2023-03-22T13:10:56.302Z,26.6
2023-03-22T13:11:58.175Z,26.7
2023-03-22T13:12:59.992Z,26.7
2023-03-22T13:14:01.813Z,26.8
2023-03-22T13:15:03.721Z,26.7
2023-03-22T13:16:05.583Z,26.6
2023-03-22T13:17:07.787Z,26.6
2023-03-22T13:18:10.052Z,26.7
2023-03-22T13:19:12.136Z,26.6
2023-03-22T13:20:14.115Z,26.6
2023-03-22T13:21:16.351Z,26.7
2023-03-22T13:22:18.377Z,26.5
2023-03-22T13:23:20.203Z,26.5
2023-03-22T13:24:22.092Z,26.6
2023-03-22T13:25:24.060Z,26.6
2023-03-22T13:26:25.897Z,26.6
2023-03-22T13:27:27.794Z,26.6
2023-03-22T13:28:29.613Z,26.7
2023-03-22T13:29:31.546Z,26.6
2023-03-22T13:30:33.594Z,26.5
2023-03-22T13:31:35.564Z,26.5
2023-03-22T13:32:37.604Z,26.5
2023-03-22T13:33:39.744Z,26.8
2023-03-22T13:34:41.473Z,26.6
2023-03-22T13:35:44.521Z,26.6
2023-03-22T13:36:46.547Z,26.6
2023-03-22T13:37:48.303Z,26.8
2023-03-22T13:38:50.136Z,26.9
2023-03-22T13:39:52.095Z,26.9
2023-03-22T13:40:54.059Z,26.6
2023-03-22T13:41:55.890Z,26.6
2023-03-22T13:42:57.778Z,26.7
2023-03-22T13:43:59.608Z,26.6
2023-03-22T13:45:01.454Z,26.6
2023-03-22T13:46:03.368Z,26.6
2023-03-22T13:47:05.455Z,26.6
2023-03-22T13:48:07.845Z,26.5
2023-03-22T13:49:10.219Z,26.6
2023-03-22T13:50:12.528Z,26.6
2023-03-22T13:51:14.464Z,26.6
2023-03-22T13:52:16.348Z,26.6
2023-03-22T13:53:18.081Z,26.6